Jackson Summit, Pennsylvania
Current Conditions -  °F | °C
As of 9:53 AM on Saturday 20 Dec 2014 (Local Time) from KELM Reporting Station
Overcast Overcast  
Wind Chill: -6°   Ceiling: 2100
Heat Index: -2°   Visibility: 10mi
Dew Point: -6°   Wind: 7mph
Humidity: 72%   Direction: 330°NNW
Pressure: 30.26"   Gusts: NA
Location:  41.9565°N, 76.9857°W
Report Text: KELM 201453Z 33006KT 10SM OVC021 M02/M06 A3026 RMK AO2 SLP261 T10171061 53004
Loading
Personal Weather Stations






























Interactive Weather Map New forecast layout! Learn more

10-Day Weather Forecast

Advertisements
Track Severe Weather on mobile